sensor_id;sensor_type;location;lat;lon;timestamp;P1;durP1;ratioP1;P2;durP2;ratioP2
23222;SDS011;11780;13.904;100.620;2022-07-04T13:04:55;10.60;;;4.53;;
23222;SDS011;11780;13.904;100.620;2022-07-04T13:07:26;10.97;;;4.70;;
23222;SDS011;11780;13.904;100.620;2022-07-04T13:09:57;6.90;;;3.22;;
23222;SDS011;11780;13.904;100.620;2022-07-04T13:12:27;10.82;;;4.00;;
23222;SDS011;11780;13.904;100.620;2022-07-04T13:14:58;8.53;;;3.67;;
23222;SDS011;11780;13.904;100.620;2022-07-04T13:17:29;5.15;;;3.65;;
23222;SDS011;11780;13.904;100.620;2022-07-04T13:20:00;9.53;;;3.00;;
23222;SDS011;11780;13.904;100.620;2022-07-04T13:22:31;9.20;;;3.22;;
23222;SDS011;11780;13.904;100.620;2022-07-04T13:25:01;9.23;;;3.20;;
23222;SDS011;11780;13.904;100.620;2022-07-04T13:30:02;7.63;;;2.78;;
23222;SDS011;11780;13.904;100.620;2022-07-04T13:32:34;13.52;;;3.45;;
23222;SDS011;11780;13.904;100.620;2022-07-04T13:35:05;7.55;;;2.97;;
23222;SDS011;11780;13.904;100.620;2022-07-04T13:37:36;7.13;;;2.67;;
23222;SDS011;11780;13.904;100.620;2022-07-04T13:40:08;7.40;;;2.83;;
23222;SDS011;11780;13.904;100.620;2022-07-04T13:42:39;7.20;;;2.78;;
23222;SDS011;11780;13.904;100.620;2022-07-04T13:45:28;7.68;;;3.17;;
23222;SDS011;11780;13.904;100.620;2022-07-04T13:47:58;5.70;;;2.88;;
23222;SDS011;11780;13.904;100.620;2022-07-04T13:50:29;5.95;;;3.47;;
23222;SDS011;11780;13.904;100.620;2022-07-04T13:53:00;6.78;;;2.92;;
23222;SDS011;11780;13.904;100.620;2022-07-04T13:55:30;8.13;;;3.47;;
23222;SDS011;11780;13.904;100.620;2022-07-04T13:58:05;6.60;;;2.92;;
23222;SDS011;11780;13.904;100.620;2022-07-04T14:00:36;9.32;;;3.70;;
23222;SDS011;11780;13.904;100.620;2022-07-04T14:03:14;11.35;;;3.60;;
23222;SDS011;11780;13.904;100.620;2022-07-04T14:05:45;9.27;;;3.47;;
23222;SDS011;11780;13.904;100.620;2022-07-04T14:08:16;8.67;;;3.00;;
23222;SDS011;11780;13.904;100.620;2022-07-04T14:10:46;8.75;;;3.10;;
23222;SDS011;11780;13.904;100.620;2022-07-04T14:13:16;7.20;;;3.15;;
23222;SDS011;11780;13.904;100.620;2022-07-04T14:15:46;12.73;;;3.33;;
23222;SDS011;11780;13.904;100.620;2022-07-04T14:18:17;9.68;;;3.45;;
23222;SDS011;11780;13.904;100.620;2022-07-04T14:20:49;10.27;;;3.22;;
23222;SDS011;11780;13.904;100.620;2022-07-04T14:23:19;12.63;;;3.37;;
23222;SDS011;11780;13.904;100.620;2022-07-04T14:26:10;12.95;;;3.25;;
23222;SDS011;11780;13.904;100.620;2022-07-04T14:28:43;10.10;;;3.33;;
23222;SDS011;11780;13.904;100.620;2022-07-04T14:31:16;11.57;;;4.00;;
23222;SDS011;11780;13.904;100.620;2022-07-04T14:33:47;7.65;;;3.20;;
23222;SDS011;11780;13.904;100.620;2022-07-04T14:36:17;9.53;;;3.17;;
23222;SDS011;11780;13.904;100.620;2022-07-04T14:38:48;8.65;;;3.53;;
23222;SDS011;11780;13.904;100.620;2022-07-04T14:41:18;9.55;;;2.88;;
23222;SDS011;11780;13.904;100.620;2022-07-04T14:43:48;8.90;;;3.30;;
23222;SDS011;11780;13.904;100.620;2022-07-04T14:46:19;6.60;;;3.25;;
23222;SDS011;11780;13.904;100.620;2022-07-04T14:48:49;7.50;;;3.20;;
23222;SDS011;11780;13.904;100.620;2022-07-04T14:51:20;11.67;;;3.10;;
23222;SDS011;11780;13.904;100.620;2022-07-04T14:53:50;8.93;;;3.70;;
23222;SDS011;11780;13.904;100.620;2022-07-04T14:56:21;5.47;;;2.90;;
23222;SDS011;11780;13.904;100.620;2022-07-04T14:58:51;8.85;;;2.90;;
23222;SDS011;11780;13.904;100.620;2022-07-04T15:01:22;8.52;;;3.50;;
23222;SDS011;11780;13.904;100.620;2022-07-04T15:03:52;11.02;;;3.40;;
23222;SDS011;11780;13.904;100.620;2022-07-04T15:06:24;7.45;;;3.08;;
23222;SDS011;11780;13.904;100.620;2022-07-04T15:08:54;9.70;;;3.08;;
23222;SDS011;11780;13.904;100.620;2022-07-04T15:11:24;5.97;;;2.58;;
23222;SDS011;11780;13.904;100.620;2022-07-04T15:13:54;7.13;;;3.00;;
23222;SDS011;11780;13.904;100.620;2022-07-04T15:16:25;5.80;;;2.97;;
23222;SDS011;11780;13.904;100.620;2022-07-04T15:18:56;7.25;;;3.50;;
23222;SDS011;11780;13.904;100.620;2022-07-04T15:21:26;7.72;;;3.30;;
23222;SDS011;11780;13.904;100.620;2022-07-04T15:24:15;8.10;;;3.13;;
23222;SDS011;11780;13.904;100.620;2022-07-04T15:26:50;8.63;;;3.67;;
23222;SDS011;11780;13.904;100.620;2022-07-04T15:29:22;7.30;;;3.10;;
23222;SDS011;11780;13.904;100.620;2022-07-04T15:34:22;8.45;;;3.33;;
23222;SDS011;11780;13.904;100.620;2022-07-04T15:36:52;5.70;;;3.28;;
23222;SDS011;11780;13.904;100.620;2022-07-04T15:39:22;7.07;;;3.17;;
23222;SDS011;11780;13.904;100.620;2022-07-04T15:41:53;9.17;;;3.60;;
23222;SDS011;11780;13.904;100.620;2022-07-04T15:44:23;9.52;;;3.63;;
23222;SDS011;11780;13.904;100.620;2022-07-04T15:46:53;10.25;;;3.33;;
23222;SDS011;11780;13.904;100.620;2022-07-04T15:49:39;6.28;;;2.88;;
23222;SDS011;11780;13.904;100.620;2022-07-04T15:52:09;7.13;;;2.95;;
23222;SDS011;11780;13.904;100.620;2022-07-04T15:54:39;10.33;;;3.40;;
23222;SDS011;11780;13.904;100.620;2022-07-04T15:57:10;7.95;;;3.15;;
23222;SDS011;11780;13.904;100.620;2022-07-04T15:59:42;7.07;;;2.72;;
23222;SDS011;11780;13.904;100.620;2022-07-04T16:02:12;6.28;;;3.22;;
23222;SDS011;11780;13.904;100.620;2022-07-04T16:04:43;7.82;;;3.13;;
23222;SDS011;11780;13.904;100.620;2022-07-04T16:07:13;8.77;;;3.05;;
23222;SDS011;11780;13.904;100.620;2022-07-04T16:09:44;5.43;;;2.90;;
23222;SDS011;11780;13.904;100.620;2022-07-04T16:12:14;7.43;;;3.50;;
23222;SDS011;11780;13.904;100.620;2022-07-04T16:14:44;8.15;;;3.13;;
23222;SDS011;11780;13.904;100.620;2022-07-04T16:17:14;5.97;;;3.00;;
23222;SDS011;11780;13.904;100.620;2022-07-04T16:19:44;9.73;;;3.13;;
23222;SDS011;11780;13.904;100.620;2022-07-04T16:22:15;6.07;;;2.63;;
23222;SDS011;11780;13.904;100.620;2022-07-04T16:24:46;8.00;;;3.55;;
23222;SDS011;11780;13.904;100.620;2022-07-04T16:27:16;7.75;;;3.20;;
23222;SDS011;11780;13.904;100.620;2022-07-04T16:29:46;11.90;;;3.80;;
23222;SDS011;11780;13.904;100.620;2022-07-04T16:32:18;7.75;;;3.10;;
23222;SDS011;11780;13.904;100.620;2022-07-04T16:34:48;8.65;;;3.35;;
23222;SDS011;11780;13.904;100.620;2022-07-04T16:37:18;9.17;;;3.30;;
23222;SDS011;11780;13.904;100.620;2022-07-04T16:39:49;6.20;;;3.22;;
23222;SDS011;11780;13.904;100.620;2022-07-04T16:42:19;11.38;;;3.03;;
23222;SDS011;11780;13.904;100.620;2022-07-04T16:44:49;11.25;;;3.38;;
23222;SDS011;11780;13.904;100.620;2022-07-04T16:47:20;7.38;;;2.97;;
23222;SDS011;11780;13.904;100.620;2022-07-04T16:52:21;9.80;;;3.22;;
23222;SDS011;11780;13.904;100.620;2022-07-04T16:54:52;7.75;;;2.63;;
23222;SDS011;11780;13.904;100.620;2022-07-04T16:57:22;8.07;;;2.80;;
23222;SDS011;11780;13.904;100.620;2022-07-04T16:59:52;6.20;;;2.58;;
23222;SDS011;11780;13.904;100.620;2022-07-04T17:02:22;6.35;;;2.80;;
23222;SDS011;11780;13.904;100.620;2022-07-04T17:04:55;6.35;;;2.75;;
23222;SDS011;11780;13.904;100.620;2022-07-04T17:07:26;7.55;;;2.70;;
23222;SDS011;11780;13.904;100.620;2022-07-04T17:09:58;4.35;;;2.35;;
23222;SDS011;11780;13.904;100.620;2022-07-04T17:12:28;5.80;;;2.10;;
23222;SDS011;11780;13.904;100.620;2022-07-04T17:14:59;7.25;;;2.25;;
23222;SDS011;11780;13.904;100.620;2022-07-04T17:17:29;8.38;;;2.67;;
23222;SDS011;11780;13.904;100.620;2022-07-04T17:20:00;6.43;;;2.10;;
23222;SDS011;11780;13.904;100.620;2022-07-04T17:22:30;5.00;;;2.08;;
23222;SDS011;11780;13.904;100.620;2022-07-04T17:25:00;6.45;;;2.40;;
23222;SDS011;11780;13.904;100.620;2022-07-04T17:27:34;6.15;;;2.20;;
23222;SDS011;11780;13.904;100.620;2022-07-04T17:30:05;6.55;;;2.55;;
23222;SDS011;11780;13.904;100.620;2022-07-04T17:32:36;6.93;;;2.40;;
23222;SDS011;11780;13.904;100.620;2022-07-04T17:35:06;4.40;;;2.27;;
23222;SDS011;11780;13.904;100.620;2022-07-04T17:37:37;5.10;;;2.45;;
23222;SDS011;11780;13.904;100.620;2022-07-04T17:40:07;4.25;;;1.98;;
23222;SDS011;11780;13.904;100.620;2022-07-04T17:42:38;4.15;;;2.17;;
23222;SDS011;11780;13.904;100.620;2022-07-04T17:45:08;10.18;;;2.55;;
23222;SDS011;11780;13.904;100.620;2022-07-04T17:47:40;8.50;;;3.17;;
23222;SDS011;11780;13.904;100.620;2022-07-04T17:50:11;7.32;;;2.53;;
23222;SDS011;11780;13.904;100.620;2022-07-04T17:52:41;6.20;;;2.70;;
23222;SDS011;11780;13.904;100.620;2022-07-04T17:55:14;5.00;;;2.47;;
23222;SDS011;11780;13.904;100.620;2022-07-04T17:57:45;4.18;;;2.33;;
23222;SDS011;11780;13.904;100.620;2022-07-04T18:00:16;3.13;;;1.80;;
23222;SDS011;11780;13.904;100.620;2022-07-04T18:02:46;3.95;;;2.22;;
23222;SDS011;11780;13.904;100.620;2022-07-04T18:05:17;5.22;;;2.47;;
23222;SDS011;11780;13.904;100.620;2022-07-04T18:07:47;5.28;;;2.13;;
23222;SDS011;11780;13.904;100.620;2022-07-04T18:10:17;3.38;;;1.80;;
23222;SDS011;11780;13.904;100.620;2022-07-04T18:12:47;3.85;;;2.15;;
23222;SDS011;11780;13.904;100.620;2022-07-04T18:15:17;4.60;;;1.85;;
23222;SDS011;11780;13.904;100.620;2022-07-04T18:17:47;3.78;;;1.58;;
23222;SDS011;11780;13.904;100.620;2022-07-04T18:20:17;1.80;;;1.20;;
23222;SDS011;11780;13.904;100.620;2022-07-04T18:22:47;2.03;;;1.27;;
23222;SDS011;11780;13.904;100.620;2022-07-04T18:25:18;2.47;;;1.50;;
23222;SDS011;11780;13.904;100.620;2022-07-04T18:27:48;2.60;;;1.40;;
23222;SDS011;11780;13.904;100.620;2022-07-04T18:30:18;3.67;;;1.70;;
23222;SDS011;11780;13.904;100.620;2022-07-04T18:32:49;2.20;;;1.40;;
23222;SDS011;11780;13.904;100.620;2022-07-04T18:35:20;2.35;;;1.55;;
23222;SDS011;11780;13.904;100.620;2022-07-04T18:37:51;3.47;;;1.33;;
23222;SDS011;11780;13.904;100.620;2022-07-04T18:40:21;4.40;;;1.50;;
23222;SDS011;11780;13.904;100.620;2022-07-04T18:43:09;3.33;;;1.55;;
23222;SDS011;11780;13.904;100.620;2022-07-04T18:45:56;1.67;;;1.30;;
23222;SDS011;11780;13.904;100.620;2022-07-04T18:48:30;1.75;;;1.42;;
23222;SDS011;11780;13.904;100.620;2022-07-04T18:51:01;3.22;;;2.13;;
23222;SDS011;11780;13.904;100.620;2022-07-04T18:53:34;3.58;;;1.80;;
23222;SDS011;11780;13.904;100.620;2022-07-04T18:56:05;2.35;;;1.67;;
23222;SDS011;11780;13.904;100.620;2022-07-04T18:58:36;4.32;;;1.83;;
23222;SDS011;11780;13.904;100.620;2022-07-04T19:01:06;3.45;;;1.58;;
23222;SDS011;11780;13.904;100.620;2022-07-04T19:03:37;2.40;;;1.90;;
23222;SDS011;11780;13.904;100.620;2022-07-04T19:06:07;2.85;;;1.90;;
23222;SDS011;11780;13.904;100.620;2022-07-04T19:08:38;4.57;;;2.22;;
23222;SDS011;11780;13.904;100.620;2022-07-04T19:11:09;5.00;;;2.13;;
23222;SDS011;11780;13.904;100.620;2022-07-04T19:13:39;3.53;;;2.17;;
23222;SDS011;11780;13.904;100.620;2022-07-04T19:16:10;4.43;;;2.28;;
23222;SDS011;11780;13.904;100.620;2022-07-04T19:18:41;3.58;;;2.30;;
23222;SDS011;11780;13.904;100.620;2022-07-04T19:21:22;3.25;;;2.53;;
23222;SDS011;11780;13.904;100.620;2022-07-04T19:23:55;3.28;;;2.67;;
23222;SDS011;11780;13.904;100.620;2022-07-04T19:26:26;5.80;;;2.45;;
23222;SDS011;11780;13.904;100.620;2022-07-04T19:28:56;3.17;;;2.40;;
23222;SDS011;11780;13.904;100.620;2022-07-04T19:31:26;5.47;;;2.92;;
23222;SDS011;11780;13.904;100.620;2022-07-04T19:33:57;9.57;;;3.17;;
23222;SDS011;11780;13.904;100.620;2022-07-04T19:36:27;6.07;;;2.90;;
23222;SDS011;11780;13.904;100.620;2022-07-04T19:38:57;4.70;;;2.50;;
23222;SDS011;11780;13.904;100.620;2022-07-04T19:41:27;4.20;;;2.63;;
23222;SDS011;11780;13.904;100.620;2022-07-04T19:43:57;4.68;;;2.92;;
23222;SDS011;11780;13.904;100.620;2022-07-04T19:46:27;5.28;;;2.90;;
23222;SDS011;11780;13.904;100.620;2022-07-04T19:48:58;5.57;;;3.30;;
23222;SDS011;11780;13.904;100.620;2022-07-04T19:51:28;4.75;;;2.88;;
23222;SDS011;11780;13.904;100.620;2022-07-04T19:54:01;7.47;;;3.22;;
23222;SDS011;11780;13.904;100.620;2022-07-04T19:56:31;5.40;;;2.97;;
23222;SDS011;11780;13.904;100.620;2022-07-04T19:59:01;5.60;;;3.30;;
23222;SDS011;11780;13.904;100.620;2022-07-04T20:01:32;4.30;;;2.83;;
23222;SDS011;11780;13.904;100.620;2022-07-04T20:04:02;5.90;;;3.33;;
23222;SDS011;11780;13.904;100.620;2022-07-04T20:06:33;5.22;;;2.90;;
23222;SDS011;11780;13.904;100.620;2022-07-04T20:09:04;7.13;;;3.00;;
23222;SDS011;11780;13.904;100.620;2022-07-04T20:11:34;5.93;;;2.95;;
23222;SDS011;11780;13.904;100.620;2022-07-04T20:14:05;7.60;;;3.50;;
23222;SDS011;11780;13.904;100.620;2022-07-04T20:16:36;4.82;;;3.10;;
23222;SDS011;11780;13.904;100.620;2022-07-04T20:19:06;7.38;;;3.53;;
23222;SDS011;11780;13.904;100.620;2022-07-04T20:21:39;5.18;;;3.58;;
23222;SDS011;11780;13.904;100.620;2022-07-04T20:24:10;5.90;;;3.25;;
23222;SDS011;11780;13.904;100.620;2022-07-04T20:26:41;7.07;;;3.60;;
23222;SDS011;11780;13.904;100.620;2022-07-04T20:29:31;4.10;;;3.15;;
23222;SDS011;11780;13.904;100.620;2022-07-04T20:32:03;5.18;;;3.25;;
23222;SDS011;11780;13.904;100.620;2022-07-04T20:34:35;5.28;;;3.17;;
23222;SDS011;11780;13.904;100.620;2022-07-04T20:37:08;4.75;;;3.10;;
23222;SDS011;11780;13.904;100.620;2022-07-04T20:39:38;7.43;;;3.53;;
23222;SDS011;11780;13.904;100.620;2022-07-04T20:42:10;6.80;;;3.35;;
23222;SDS011;11780;13.904;100.620;2022-07-04T20:44:40;4.40;;;2.83;;
23222;SDS011;11780;13.904;100.620;2022-07-04T20:47:11;6.97;;;2.95;;
23222;SDS011;11780;13.904;100.620;2022-07-04T20:49:41;6.85;;;2.97;;
23222;SDS011;11780;13.904;100.620;2022-07-04T20:52:13;6.85;;;3.38;;
23222;SDS011;11780;13.904;100.620;2022-07-04T20:54:45;4.32;;;3.22;;
23222;SDS011;11780;13.904;100.620;2022-07-04T20:57:17;8.07;;;3.42;;
23222;SDS011;11780;13.904;100.620;2022-07-04T20:59:47;6.90;;;3.50;;
23222;SDS011;11780;13.904;100.620;2022-07-04T21:02:18;5.78;;;3.85;;
23222;SDS011;11780;13.904;100.620;2022-07-04T21:04:51;4.10;;;3.00;;
23222;SDS011;11780;13.904;100.620;2022-07-04T21:07:41;6.07;;;3.38;;
23222;SDS011;11780;13.904;100.620;2022-07-04T21:10:11;7.65;;;4.80;;
23222;SDS011;11780;13.904;100.620;2022-07-04T21:12:41;4.68;;;4.10;;
23222;SDS011;11780;13.904;100.620;2022-07-04T21:15:11;5.60;;;3.78;;
23222;SDS011;11780;13.904;100.620;2022-07-04T21:17:51;7.47;;;3.72;;
23222;SDS011;11780;13.904;100.620;2022-07-04T21:20:23;5.40;;;3.67;;
23222;SDS011;11780;13.904;100.620;2022-07-04T21:25:23;6.15;;;5.10;;
23222;SDS011;11780;13.904;100.620;2022-07-04T21:27:53;9.65;;;5.32;;
23222;SDS011;11780;13.904;100.620;2022-07-04T21:30:23;5.40;;;4.03;;
23222;SDS011;11780;13.904;100.620;2022-07-04T21:32:53;8.15;;;4.75;;
23222;SDS011;11780;13.904;100.620;2022-07-04T21:35:23;8.38;;;4.72;;
23222;SDS011;11780;13.904;100.620;2022-07-04T21:40:25;4.88;;;4.30;;
23222;SDS011;11780;13.904;100.620;2022-07-04T21:42:57;7.95;;;4.63;;
23222;SDS011;11780;13.904;100.620;2022-07-04T21:45:28;8.48;;;5.10;;
23222;SDS011;11780;13.904;100.620;2022-07-04T21:47:58;7.07;;;5.03;;
23222;SDS011;11780;13.904;100.620;2022-07-04T21:50:31;8.32;;;5.28;;
23222;SDS011;11780;13.904;100.620;2022-07-04T21:53:05;6.43;;;4.80;;
23222;SDS011;11780;13.904;100.620;2022-07-04T21:55:35;12.40;;;5.50;;
23222;SDS011;11780;13.904;100.620;2022-07-04T21:58:06;8.23;;;5.78;;
23222;SDS011;11780;13.904;100.620;2022-07-04T22:00:36;8.82;;;5.35;;
23222;SDS011;11780;13.904;100.620;2022-07-04T22:03:08;7.75;;;5.45;;
23222;SDS011;11780;13.904;100.620;2022-07-04T22:05:39;9.68;;;5.47;;
23222;SDS011;11780;13.904;100.620;2022-07-04T22:08:12;8.30;;;5.53;;
23222;SDS011;11780;13.904;100.620;2022-07-04T22:10:42;10.13;;;5.47;;
23222;SDS011;11780;13.904;100.620;2022-07-04T22:13:12;9.20;;;5.35;;
23222;SDS011;11780;13.904;100.620;2022-07-04T22:15:42;10.48;;;5.63;;
23222;SDS011;11780;13.904;100.620;2022-07-04T22:18:14;7.28;;;6.30;;
23222;SDS011;11780;13.904;100.620;2022-07-04T22:20:46;9.07;;;5.22;;
23222;SDS011;11780;13.904;100.620;2022-07-04T22:25:46;8.93;;;5.50;;
23222;SDS011;11780;13.904;100.620;2022-07-04T22:28:16;11.18;;;6.03;;
23222;SDS011;11780;13.904;100.620;2022-07-04T22:30:46;11.02;;;5.57;;
23222;SDS011;11780;13.904;100.620;2022-07-04T22:33:17;7.50;;;5.37;;
23222;SDS011;11780;13.904;100.620;2022-07-04T22:35:48;11.65;;;6.72;;
23222;SDS011;11780;13.904;100.620;2022-07-04T22:38:19;11.70;;;5.70;;
23222;SDS011;11780;13.904;100.620;2022-07-04T22:40:49;11.00;;;5.78;;
23222;SDS011;11780;13.904;100.620;2022-07-04T22:43:21;8.90;;;5.93;;
23222;SDS011;11780;13.904;100.620;2022-07-04T22:45:54;10.70;;;5.32;;
23222;SDS011;11780;13.904;100.620;2022-07-04T22:48:24;10.37;;;5.67;;
23222;SDS011;11780;13.904;100.620;2022-07-04T22:50:56;9.05;;;5.93;;
23222;SDS011;11780;13.904;100.620;2022-07-04T22:53:42;11.63;;;6.43;;
